Time;durP1;ratioP1;P1;durP2;ratioP2;P2;SDS_P1;SDS_P2;PMS_P1;PMS_P2;Temp;Humidity;BMP_temperature;BMP_pressure;BME280_temperature;BME280_humidity;BME280_pressure;Samples;Min_cycle;Max_cycle;Signal;HPM_P1;HPM_P2
2023/06/25 00:01:17;;;;;;;;;10.25;10.25;;;;;25.50;48.72;100658.09;146635;579;45017;-68
2023/06/25 00:04:15;;;;;;;;;10.33;10.00;;;;;25.47;48.38;100666.09;146637;685;45020;-73
2023/06/25 00:07:21;;;;;;;;;11.25;9.25;;;;;25.49;49.08;100666.97;146631;565;45016;-70
2023/06/25 00:10:18;;;;;;;;;11.75;10.00;;;;;25.53;49.46;100668.69;146634;696;46011;-71
2023/06/25 00:13:14;;;;;;;;;11.25;11.25;;;;;25.49;51.67;100659.88;146630;680;45914;-71
2023/06/25 00:16:34;;;;;;;;;8.33;8.00;;;;;25.38;49.73;100651.13;146634;626;45036;-71
2023/06/25 00:19:29;;;;;;;;;11.00;11.00;;;;;25.28;50.98;100647.72;146634;582;45913;-73
2023/06/25 00:22:26;;;;;;;;;7.67;6.00;;;;;25.18;50.52;100651.34;146641;601;45020;-71
2023/06/25 00:25:28;;;;;;;;;10.67;9.67;;;;;25.07;50.42;100655.84;146634;627;46014;-71
2023/06/25 00:28:32;;;;;;;;;9.00;8.33;;;;;24.94;50.03;100643.59;146636;609;45020;-71
2023/06/25 00:31:31;;;;;;;;;8.00;6.33;;;;;24.96;48.69;100649.78;146633;592;46012;-71
2023/06/25 00:34:40;;;;;;;;;8.67;8.33;;;;;24.00;48.66;100487.09;146637;583;45014;-71
2023/06/25 00:38:05;;;;;;;;;7.00;6.00;;;;;24.97;48.19;100652.41;146636;664;45016;-72
2023/06/25 00:41:09;;;;;;;;;10.67;7.67;;;;;24.92;48.23;100655.97;146630;583;46916;-71
2023/06/25 00:44:15;;;;;;;;;8.00;7.00;;;;;24.87;47.46;100658.69;146619;565;46016;-71
2023/06/25 00:47:15;;;;;;;;;8.00;7.00;;;;;24.85;47.05;100668.41;146626;590;46011;-73
2023/06/25 00:50:14;;;;;;;;;6.67;6.00;;;;;24.80;47.12;100660.50;146620;611;47016;-72
2023/06/25 00:53:11;;;;;;;;;6.25;6.25;;;;;24.73;47.45;100664.09;146623;625;46021;-73
2023/06/25 00:56:15;;;;;;;;;7.00;7.00;;;;;24.68;47.72;100655.31;146619;584;46016;-72
2023/06/25 00:59:11;;;;;;;;;4.33;4.33;;;;;24.65;47.93;100657.97;146625;573;46020;-72
2023/06/25 01:02:56;;;;;;;;;8.33;7.00;;;;;22.53;47.67;100312.41;146621;594;46911;-71
2023/06/25 01:06:29;;;;;;;;;5.67;5.67;;;;;22.38;47.26;100291.34;146624;587;46027;-71
2023/06/25 01:09:43;;;;;;;;;6.67;6.33;;;;;24.47;47.67;100653.69;146620;585;46014;-74
2023/06/25 01:12:56;;;;;;;;;6.33;6.33;;;;;24.45;48.15;100647.50;146622;641;46029;-72
2023/06/25 01:47:50;;;;;;;;;8.00;7.75;;;;;24.51;48.62;100654.53;146633;566;46012;-71
2023/06/25 01:50:53;;;;;;;;;9.00;9.00;;;;;24.35;48.80;100656.38;146641;607;45020;-70
2023/06/25 01:53:49;;;;;;;;;10.67;9.00;;;;;24.22;49.02;100652.94;146633;630;46914;-71
2023/06/25 01:56:57;;;;;;;;;9.00;8.33;;;;;24.17;49.58;100660.91;146636;584;46010;-69
2023/06/25 02:00:07;;;;;;;;;9.67;8.00;;;;;24.09;49.64;100659.19;146636;614;45024;-68
2023/06/25 02:03:08;;;;;;;;;10.00;9.67;;;;;23.97;50.79;100660.13;146636;649;46018;-69
2023/06/25 02:06:10;;;;;;;;;7.00;7.00;;;;;23.89;51.26;100670.72;146634;588;45016;-67
2023/06/25 02:09:22;;;;;;;;;9.67;9.67;;;;;23.85;50.43;100668.13;146636;668;45010;-66
2023/06/25 02:12:18;;;;;;;;;10.25;8.50;;;;;23.78;51.87;100669.03;146634;723;46012;-67
2023/06/25 02:15:15;;;;;;;;;12.00;8.25;;;;;23.69;51.19;100654.94;146634;644;46010;-69
2023/06/25 02:18:23;;;;;;;;;9.00;7.75;;;;;23.67;51.14;100659.31;146631;563;47913;-68
2023/06/25 02:21:35;;;;;;;;;8.50;7.75;;;;;21.31;51.41;100250.13;146637;589;45020;-69
2023/06/25 02:24:35;;;;;;;;;7.67;7.67;;;;;23.53;51.96;100650.56;146637;570;45016;-68
2023/06/25 02:27:35;;;;;;;;;7.50;7.00;;;;;23.47;52.48;100642.62;146635;563;45029;-67
2023/06/25 02:30:32;;;;;;;;;9.00;9.00;;;;;23.47;52.07;100647.94;146633;573;46012;-68
2023/06/25 02:33:24;;;;;;;;;10.67;8.00;;;;;23.54;52.35;100654.97;146637;564;45020;-67
2023/06/25 02:36:22;;;;;;;;;8.00;7.00;;;;;23.60;52.09;100652.28;146633;577;46012;-67
2023/06/25 02:39:26;;;;;;;;;10.25;9.00;;;;;23.73;51.75;100656.69;146636;570;45020;-68
2023/06/25 02:42:18;;;;;;;;;11.00;9.67;;;;;23.88;51.38;100663.69;146623;603;46012;-68
2023/06/25 02:45:16;;;;;;;;;7.67;7.00;;;;;23.98;50.32;100660.09;146620;601;46021;-69
2023/06/25 02:48:13;;;;;;;;;10.33;9.00;;;;;24.01;50.44;100661.00;146622;579;46913;-69
2023/06/25 02:51:17;;;;;;;;;8.67;8.00;;;;;23.97;50.64;100666.28;146621;567;46010;-68
2023/06/25 02:54:22;;;;;;;;;11.33;7.67;;;;;21.87;50.34;100324.87;146621;598;46016;-67
2023/06/25 02:57:29;;;;;;;;;8.33;8.00;;;;;23.80;51.45;100672.53;146623;576;46012;-67
2023/06/25 03:00:24;;;;;;;;;8.00;7.00;;;;;23.73;51.50;100672.56;146617;658;46016;-68
2023/06/25 03:03:27;;;;;;;;;7.67;7.00;;;;;23.75;51.72;100672.56;146624;586;46020;-68
2023/06/25 03:06:38;;;;;;;;;9.67;7.67;;;;;23.68;51.63;100669.03;146619;564;46017;-68
2023/06/25 03:09:39;;;;;;;;;8.00;8.00;;;;;23.56;51.73;100662.91;146621;611;46020;-67
2023/06/25 03:12:46;;;;;;;;;6.33;6.00;;;;;21.42;50.96;100321.38;146621;564;46012;-66
2023/06/25 03:15:37;;;;;;;;;7.33;7.00;;;;;23.37;52.04;100657.66;146620;616;46021;-67
2023/06/25 03:18:34;;;;;;;;;7.00;6.00;;;;;23.30;53.07;100661.19;146621;606;46016;-67
2023/06/25 03:21:36;;;;;;;;;9.67;9.00;;;;;23.18;53.14;100656.81;146625;647;46012;-67
2023/06/25 03:24:50;;;;;;;;;6.67;6.00;;;;;20.78;53.58;100264.16;146620;566;46016;-71
2023/06/25 03:27:46;;;;;;;;;11.00;8.00;;;;;23.00;54.20;100668.28;146624;625;46028;-70
2023/06/25 03:30:41;;;;;;;;;10.00;10.00;;;;;22.99;54.59;100658.59;146621;670;46016;-70
2023/06/25 03:33:35;;;;;;;;;10.75;8.00;;;;;23.09;54.61;100666.53;146622;680;46029;-70
2023/06/25 03:36:30;;;;;;;;;8.33;7.67;;;;;23.20;54.27;100670.03;146617;575;47029;-69
2023/06/25 03:39:31;;;;;;;;;11.00;8.00;;;;;23.28;54.28;100677.06;146624;576;46020;-69
2023/06/25 03:42:28;;;;;;;;;8.00;8.00;;;;;23.34;54.02;100670.03;146620;590;46016;-69
2023/06/25 03:45:27;;;;;;;;;8.67;7.67;;;;;23.39;53.24;100676.16;146622;585;46010;-68
2023/06/25 03:48:44;;;;;;;;;6.67;6.67;;;;;23.47;54.07;100687.63;146621;563;46016;-70
2023/06/25 03:51:47;;;;;;;;;9.25;9.00;;;;;23.61;53.35;100688.44;146622;621;46021;-69
2023/06/25 03:54:53;;;;;;;;;8.00;7.00;;;;;23.72;54.22;100685.81;146618;632;47016;-69
2023/06/25 03:57:50;;;;;;;;;8.00;8.00;;;;;23.76;55.00;100692.84;146623;566;46029;-70
2023/06/25 04:00:49;;;;;;;;;10.25;7.75;;;;;23.69;55.18;100694.66;146619;566;46017;-69
2023/06/25 04:03:54;;;;;;;;;9.00;8.00;;;;;23.62;54.49;100686.72;146626;614;46012;-68
2023/06/25 04:06:53;;;;;;;;;10.00;8.00;;;;;23.62;55.70;100687.59;146620;571;46916;-69
2023/06/25 04:10:00;;;;;;;;;9.75;7.75;;;;;23.69;55.02;100699.06;146623;681;46020;-69
2023/06/25 04:13:03;;;;;;;;;11.00;7.33;;;;;23.79;55.99;100699.91;146618;682;46915;-69
2023/06/25 04:15:59;;;;;;;;;8.00;8.00;;;;;23.86;55.64;100697.25;146621;593;46020;-69
2023/06/25 04:19:05;;;;;;;;;8.00;8.00;;;;;23.95;54.89;100696.31;146620;577;46016;-69
2023/06/25 04:22:02;;;;;;;;;9.00;8.33;;;;;24.04;55.26;100701.56;146627;635;47010;-68
2023/06/25 04:25:00;;;;;;;;;9.33;8.00;;;;;24.13;55.04;100701.53;146620;678;46016;-69
2023/06/25 04:28:05;;;;;;;;;9.75;8.50;;;;;24.29;56.40;100705.00;146622;641;46021;-69
2023/06/25 04:31:12;;;;;;;;;8.50;8.50;;;;;24.48;56.22;100711.09;146622;600;46034;-68
2023/06/25 04:34:08;;;;;;;;;9.75;9.75;;;;;24.69;56.06;100715.37;146624;666;47010;-68
2023/06/25 04:37:03;;;;;;;;;8.00;7.00;;;;;24.91;55.45;100710.81;146621;595;46016;-68
2023/06/25 04:40:13;;;;;;;;;10.00;10.00;;;;;25.18;55.83;100708.84;146621;664;46020;-69
2023/06/25 04:43:21;;;;;;;;;8.67;7.67;;;;;25.49;54.18;100720.06;146635;606;46014;-68
2023/06/25 04:46:21;;;;;;;;;7.33;7.33;;;;;25.78;54.42;100717.09;146638;563;46010;-68
2023/06/25 04:49:23;;;;;;;;;11.50;8.50;;;;;26.05;53.82;100726.53;146633;670;45016;-67
2023/06/25 04:52:27;;;;;;;;;12.25;9.25;;;;;26.28;51.42;100723.56;146636;566;45010;-68
2023/06/25 04:55:43;;;;;;;;;10.00;10.00;;;;;26.48;49.93;100718.00;146634;569;45016;-67
2023/06/25 04:58:54;;;;;;;;;10.67;10.00;;;;;26.68;50.93;100723.91;146637;583;46010;-68
2023/06/25 05:01:48;;;;;;;;;10.67;7.00;;;;;26.84;50.34;100713.91;146635;587;45012;-67
2023/06/25 05:04:48;;;;;;;;;10.50;8.00;;;;;26.98;49.45;100712.81;146637;572;45011;-68
2023/06/25 05:07:48;;;;;;;;;10.33;9.00;;;;;26.69;49.26;100642.34;146636;579;45016;-70
2023/06/25 05:10:40;;;;;;;;;10.50;9.00;;;;;27.14;49.38;100712.56;146636;629;45010;-68
2023/06/25 05:13:49;;;;;;;;;15.00;10.75;;;;;27.28;47.78;100708.78;146633;696;46014;-69
2023/06/25 05:16:54;;;;;;;;;9.67;9.00;;;;;27.43;47.69;100711.16;146637;596;45020;-68
2023/06/25 05:19:52;;;;;;;;;11.00;10.00;;;;;27.55;48.25;100702.94;146634;641;45915;-69
2023/06/25 05:22:50;;;;;;;;;11.00;9.25;;;;;27.68;48.54;100705.37;146636;595;45020;-66
2023/06/25 05:26:00;;;;;;;;;14.00;13.50;;;;;27.79;47.30;100706.09;146634;572;45015;-67
2023/06/25 05:29:17;;;;;;;;;11.50;11.50;;;;;27.91;48.17;100710.28;146636;634;46010;-67
2023/06/25 05:32:29;;;;;;;;;22.25;18.00;;;;;28.04;46.52;100707.34;146633;569;45012;-70
2023/06/25 05:35:32;;;;;;;;;18.00;17.00;;;;;28.16;46.89;100713.28;146635;564;45021;-68
2023/06/25 05:38:34;;;;;;;;;22.25;19.50;;;;;28.22;46.96;100700.72;146633;604;46012;-70
2023/06/25 05:41:35;;;;;;;;;14.50;14.25;;;;;28.27;46.38;100708.63;146627;698;46011;-70
2023/06/25 05:44:53;;;;;;;;;16.50;16.25;;;;;26.32;46.08;100369.09;146617;636;46016;-71
2023/06/25 05:47:54;;;;;;;;;13.00;13.00;;;;;28.35;46.43;100706.69;146619;597;46020;-69
2023/06/25 05:50:59;;;;;;;;;15.75;13.75;;;;;28.41;45.43;100706.56;146619;623;46012;-69
2023/06/25 05:53:54;;;;;;;;;10.00;9.00;;;;;28.44;44.56;100695.84;146621;580;46010;-69
2023/06/25 05:56:55;;;;;;;;;15.75;11.75;;;;;28.40;45.04;100694.13;146619;589;46014;-70
2023/06/25 06:00:05;;;;;;;;;10.00;9.00;;;;;28.42;44.84;100689.66;146617;665;46020;-69
2023/06/25 06:03:02;;;;;;;;;10.00;9.00;;;;;28.52;45.72;100687.63;146617;681;46016;-69
2023/06/25 06:06:04;;;;;;;;;8.00;7.00;;;;;28.67;45.85;100683.75;146618;577;47010;-70
2023/06/25 06:08:58;;;;;;;;;10.33;8.33;;;;;28.76;46.29;100688.84;146622;570;46012;-69
2023/06/25 06:11:56;;;;;;;;;8.00;7.00;;;;;28.62;46.36;100685.63;146625;636;46010;-70
2023/06/25 06:14:55;;;;;;;;;8.67;8.00;;;;;28.45;46.87;100688.69;146618;566;46015;-71
2023/06/25 06:17:49;;;;;;;;;9.33;8.33;;;;;28.28;48.50;100679.25;146622;612;46020;-70
2023/06/25 06:20:56;;;;;;;;;12.67;10.00;;;;;28.16;48.53;100690.19;146621;584;46014;-71
2023/06/25 06:23:53;;;;;;;;;10.33;9.67;;;;;28.08;49.61;100682.38;146623;649;46010;-71
2023/06/25 06:26:58;;;;;;;;;9.33;8.33;;;;;28.12;49.91;100688.50;146618;576;46916;-71
2023/06/25 06:29:53;;;;;;;;;11.33;10.67;;;;;28.24;51.23;100677.56;146623;577;46020;-73
2023/06/25 06:32:52;;;;;;;;;9.33;9.00;;;;;28.37;50.67;100679.97;146617;570;46918;-71
2023/06/25 06:36:02;;;;;;;;;;;;;;;;;;;;;
2023/06/25 06:39:08;;;;;;;;;12.00;10.00;;;;;28.76;49.39;100683.50;146617;606;46018;-70
2023/06/25 06:42:03;;;;;;;;;11.33;10.00;;;;;28.79;48.92;100680.78;146623;592;46010;-69
2023/06/25 06:45:08;;;;;;;;;8.67;8.67;;;;;28.87;49.17;100683.25;146622;612;46012;-70
2023/06/25 06:48:30;;;;;;;;;11.00;8.67;;;;;28.97;48.55;100679.41;146622;576;45028;-69
2023/06/25 06:51:22;;;;;;;;;13.33;12.00;;;;;29.09;49.23;100684.47;146620;595;46884;-69
2023/06/25 06:54:18;;;;;;;;;9.67;7.33;;;;;29.24;47.22;100681.41;146622;572;46010;-69
2023/06/25 06:57:11;;;;;;;;;9.00;7.67;;;;;29.29;48.48;100675.94;146620;611;46914;-69
2023/06/25 07:00:28;;;;;;;;;;;;;;;;;;;;;
2023/06/25 07:03:26;;;;;;;;;9.67;8.00;;;;;29.55;46.86;100675.22;146624;638;46013;-70
2023/06/25 07:06:18;;;;;;;;;11.00;8.00;;;;;29.69;46.01;100688.25;146624;599;46020;-70
2023/06/25 07:09:10;;;;;;;;;8.33;8.33;;;;;29.78;46.58;100684.41;146621;601;46013;-70
2023/06/25 07:12:04;;;;;;;;;9.00;9.00;;;;;29.87;46.35;100679.66;146622;730;46021;-72
2023/06/25 07:14:59;;;;;;;;;10.67;10.67;;;;;29.96;46.59;100688.34;146621;563;46014;-69
2023/06/25 07:18:10;;;;;;;;;9.33;8.00;;;;;30.00;46.24;100681.97;146622;569;46011;-69
2023/06/25 07:21:19;;;;;;;;;9.33;9.00;;;;;30.06;45.82;100684.47;146613;583;47913;-71
2023/06/25 07:24:14;;;;;;;;;10.00;9.67;;;;;30.20;46.53;100686.78;146624;578;46021;-69
2023/06/25 07:27:12;;;;;;;;;10.00;9.00;;;;;30.41;47.61;100679.91;146620;586;46016;-71
2023/06/25 07:30:17;;;;;;;;;9.67;9.67;;;;;30.57;46.35;100675.81;146620;563;46020;-71
2023/06/25 07:33:15;;;;;;;;;9.33;8.67;;;;;30.66;45.41;100678.19;146620;591;46013;-70
2023/06/25 07:36:13;;;;;;;;;10.25;9.00;;;;;30.67;45.28;100674.56;146620;610;46020;-70
2023/06/25 07:39:11;;;;;;;;;11.00;10.25;;;;;30.70;45.79;100685.16;146617;689;46017;-71
2023/06/25 07:42:18;;;;;;;;;10.75;10.50;;;;;30.71;45.07;100675.34;146618;666;46020;-72
2023/06/25 07:45:25;;;;;;;;;11.00;9.00;;;;;30.79;44.57;100676.88;146619;612;46016;-70
2023/06/25 07:48:37;;;;;;;;;7.67;7.00;;;;;30.95;42.97;100676.38;146620;601;46021;-70
2023/06/25 07:51:42;;;;;;;;;9.67;9.67;;;;;31.01;43.35;100674.34;146617;569;46016;-70
2023/06/25 07:54:37;;;;;;;;;7.33;6.67;;;;;31.12;41.29;100667.72;146623;654;46010;-71
2023/06/25 07:57:40;;;;;;;;;12.67;9.67;;;;;29.37;41.64;100345.41;146610;649;47913;-71
2023/06/25 08:00:32;;;;;;;;;10.00;9.33;;;;;31.41;41.45;100669.44;146623;598;47010;-71
2023/06/25 08:03:33;;;;;;;;;11.67;10.00;;;;;31.58;40.28;100661.63;146618;599;46017;-70
2023/06/25 08:06:46;;;;;;;;;10.67;10.67;;;;;31.74;41.75;100657.44;146623;693;46020;-72
2023/06/25 08:09:49;;;;;;;;;11.67;8.67;;;;;31.88;40.56;100666.81;146617;613;46016;-71
2023/06/25 08:12:46;;;;;;;;;7.00;6.67;;;;;31.94;41.40;100664.78;146623;613;46010;-71
2023/06/25 08:15:42;;;;;;;;;8.33;7.00;;;;;32.01;40.40;100678.84;146619;599;46013;-71
2023/06/25 08:18:48;;;;;;;;;8.00;8.00;;;;;32.01;35.98;100667.22;146621;564;46020;-72
2023/06/25 08:21:49;;;;;;;;;8.00;8.00;;;;;31.83;36.50;100666.97;146621;589;46032;-71
2023/06/25 08:24:42;;;;;;;;;8.00;8.00;;;;;31.84;36.58;100658.00;146623;654;46012;-71
2023/06/25 08:27:39;;;;;;;;;9.33;8.33;;;;;31.95;38.39;100658.47;146618;620;47927;-71
2023/06/25 08:30:36;;;;;;;;;10.50;8.25;;;;;32.15;39.52;100655.03;146621;601;46021;-71
2023/06/25 08:33:34;;;;;;;;;9.00;8.33;;;;;32.31;38.95;100657.13;146621;584;46016;-72
2023/06/25 08:36:29;;;;;;;;;9.00;9.00;;;;;32.30;37.92;100653.53;146623;658;46020;-70
2023/06/25 08:39:23;;;;;;;;;8.67;7.67;;;;;32.28;37.71;100650.06;146618;641;46016;-70
2023/06/25 08:42:24;;;;;;;;;11.00;9.00;;;;;32.24;39.06;100643.03;146622;563;46020;-70
2023/06/25 08:45:18;;;;;;;;;9.33;7.00;;;;;32.27;38.53;100640.25;146622;610;46012;-70
2023/06/25 08:48:26;;;;;;;;;10.00;9.00;;;;;32.32;38.38;100635.56;146621;587;46020;-69
2023/06/25 08:51:33;;;;;;;;;10.67;9.00;;;;;32.42;38.26;100639.63;146620;571;46016;-70
2023/06/25 08:54:31;;;;;;;;;10.67;10.33;;;;;32.44;36.54;100639.59;146621;577;46021;-70
2023/06/25 08:57:27;;;;;;;;;8.25;7.50;;;;;32.39;36.14;100630.81;146616;598;46016;-69
2023/06/25 09:00:40;;;;;;;;;7.67;7.67;;;;;32.21;35.06;100624.38;146625;578;47010;-70
2023/06/25 09:03:38;;;;;;;;;8.00;6.33;;;;;31.95;35.90;100620.94;146612;589;47916;-70
2023/06/25 09:06:35;;;;;;;;;8.00;8.00;;;;;31.84;36.09;100616.87;146621;595;46010;-70
2023/06/25 09:09:31;;;;;;;;;7.67;7.67;;;;;31.65;35.30;100614.94;146620;578;46035;-72
2023/06/25 09:12:37;;;;;;;;;10.00;8.67;;;;;31.47;38.12;100604.91;146620;597;46010;-71
2023/06/25 09:15:47;;;;;;;;;8.33;7.00;;;;;31.38;37.80;100606.13;146618;570;47017;-70
2023/06/25 09:18:48;;;;;;;;;9.33;9.33;;;;;31.39;37.79;100598.94;146621;698;46021;-70
2023/06/25 09:21:50;;;;;;;;;12.00;10.50;;;;;31.43;37.93;100598.75;146618;599;47012;-71
2023/06/25 09:24:51;;;;;;;;;7.67;6.00;;;;;31.43;37.33;100589.84;146621;612;45577;-71
2023/06/25 09:27:59;;;;;;;;;9.67;9.00;;;;;31.49;39.82;100593.16;146616;607;47014;-73
2023/06/25 09:31:11;;;;;;;;;9.75;8.75;;;;;31.65;40.13;100593.50;146619;644;47010;-70
2023/06/25 09:34:11;;;;;;;;;12.00;10.67;;;;;31.69;40.36;100591.56;146617;658;46016;-70
2023/06/25 09:37:13;;;;;;;;;6.33;6.33;;;;;31.73;41.47;100585.13;146620;586;46020;-70
2023/06/25 09:40:20;;;;;;;;;10.67;9.67;;;;;31.96;41.28;100587.84;146618;564;47012;-71
2023/06/25 09:43:25;;;;;;;;;8.50;8.50;;;;;32.20;41.06;100577.91;146623;603;46010;-69
2023/06/25 09:46:24;;;;;;;;;9.67;7.33;;;;;32.35;40.46;100580.91;146616;626;47013;-70
2023/06/25 09:49:40;;;;;;;;;8.50;7.75;;;;;32.31;40.76;100587.34;146619;653;47010;-70
2023/06/25 09:53:30;;;;;;;;;7.67;5.67;;;;;30.43;40.92;100264.25;146619;694;47012;-71
2023/06/25 09:56:56;;;;;;;;;10.00;8.67;;;;;32.09;40.77;100579.28;146624;664;46020;-70
2023/06/25 10:00:29;;;;;;;;;9.67;8.67;;;;;29.97;40.17;100252.56;146619;569;46016;-72
2023/06/25 10:03:53;;;;;;;;;7.00;7.00;;;;;31.70;40.94;100579.91;146624;579;46020;-71
2023/06/25 10:07:24;;;;;;;;;7.67;6.00;;;;;29.80;40.18;100261.19;146622;563;46016;-71
2023/06/25 10:10:45;;;;;;;;;8.00;6.67;;;;;31.62;39.60;100587.34;146621;609;47008;-70
2023/06/25 10:13:51;;;;;;;;;9.00;9.00;;;;;31.63;40.38;100584.62;146619;610;46012;-71
2023/06/25 10:16:54;;;;;;;;;8.67;7.00;;;;;31.76;39.45;100579.66;146620;569;47010;-71
2023/06/25 10:20:12;;;;;;;;;9.00;8.33;;;;;31.82;38.94;100589.28;146620;583;47016;-71
2023/06/25 10:23:28;;;;;;;;;7.00;6.00;;;;;31.80;39.63;100577.72;146623;635;46029;-70
2023/06/25 10:26:21;;;;;;;;;11.00;8.67;;;;;31.80;39.42;100577.72;146617;656;46012;-71
2023/06/25 10:29:16;;;;;;;;;7.00;6.00;;;;;31.75;39.55;100565.38;146622;653;46010;-69
2023/06/25 10:32:18;;;;;;;;;8.67;8.67;;;;;31.57;40.12;100567.91;146614;593;47017;-70
2023/06/25 10:35:29;;;;;;;;;10.25;7.75;;;;;31.46;41.12;100561.12;146623;680;46020;-72
2023/06/25 10:38:31;;;;;;;;;10.00;8.67;;;;;31.38;41.16;100557.88;146617;583;46017;-70
2023/06/25 10:41:49;;;;;;;;;8.00;7.00;;;;;31.34;41.56;100561.63;146623;577;46020;-71
2023/06/25 10:44:45;;;;;;;;;7.00;7.00;;;;;31.29;41.80;100553.72;146620;588;47013;-71
2023/06/25 10:47:38;;;;;;;;;7.75;7.00;;;;;31.36;42.30;100550.84;146619;685;46020;-72
2023/06/25 10:50:42;;;;;;;;;9.00;8.00;;;;;31.47;42.51;100552.19;146621;690;46016;-70
2023/06/25 10:53:35;;;;;;;;;8.33;7.33;;;;;31.50;40.80;100545.84;146622;575;46021;-71
2023/06/25 10:56:28;;;;;;;;;9.00;7.50;;;;;31.57;41.02;100547.34;146620;643;47012;-70
2023/06/25 10:59:32;;;;;;;;;9.00;7.50;;;;;31.71;40.70;100534.28;146624;645;46021;-71
2023/06/25 11:02:31;;;;;;;;;8.33;8.33;;;;;31.78;40.65;100539.38;146621;601;46014;-70
2023/06/25 11:05:46;;;;;;;;;7.67;5.67;;;;;31.77;40.78;100537.63;146630;632;46010;-72
2023/06/25 11:08:51;;;;;;;;;8.50;7.75;;;;;31.86;40.70;100531.91;146636;669;45017;-71
2023/06/25 11:12:03;;;;;;;;;8.75;8.75;;;;;31.98;40.15;100531.44;146640;668;45020;-72
2023/06/25 11:14:59;;;;;;;;;6.33;6.00;;;;;32.10;39.62;100530.09;146632;569;46014;-72
2023/06/25 11:18:08;;;;;;;;;8.67;8.00;;;;;32.19;40.30;100545.81;146635;595;46020;-71
2023/06/25 11:21:05;;;;;;;;;9.00;7.00;;;;;32.22;38.11;100534.06;146634;729;45017;-70
2023/06/25 11:24:14;;;;;;;;;6.00;5.00;;;;;32.21;37.16;100527.81;146639;621;45021;-71
2023/06/25 11:27:09;;;;;;;;;8.00;6.33;;;;;32.23;37.94;100531.31;146636;631;45012;-72
2023/06/25 11:30:08;;;;;;;;;9.67;9.00;;;;;32.18;37.29;100527.94;146636;599;45021;-73
2023/06/25 11:33:30;;;;;;;;;8.67;7.33;;;;;30.92;39.08;100320.38;146636;580;45016;-71
2023/06/25 11:36:27;;;;;;;;;7.33;6.00;;;;;32.08;37.82;100513.16;146640;564;45010;-70
2023/06/25 11:39:25;;;;;;;;;8.67;8.33;;;;;32.09;37.42;100512.22;146635;579;45914;-70
2023/06/25 11:42:36;;;;;;;;;7.67;7.33;;;;;30.21;39.61;100191.09;146627;591;46010;-70
2023/06/25 11:45:34;;;;;;;;;5.33;5.33;;;;;32.25;39.39;100524.09;146619;592;46012;-72
2023/06/25 11:48:33;;;;;;;;;11.33;8.00;;;;;32.35;40.79;100548.72;146621;579;47010;-71
2023/06/25 11:51:32;;;;;;;;;9.33;7.00;;;;;32.35;41.09;100551.41;146619;554;47914;-71
2023/06/25 11:54:28;;;;;;;;;8.00;7.75;;;;;32.24;41.37;100541.09;146624;576;46010;-70
2023/06/25 11:57:28;;;;;;;;;7.67;7.00;;;;;32.02;41.47;100541.09;146617;633;46016;-70
2023/06/25 12:00:25;;;;;;;;;8.67;7.67;;;;;31.69;40.95;100530.78;146628;628;46011;-71
2023/06/25 12:03:38;;;;;;;;;10.33;7.33;;;;;31.42;42.33;100519.31;146621;579;47012;-70
2023/06/25 12:07:01;;;;;;;;;10.00;7.33;;;;;30.10;41.36;100350.13;146623;614;46010;-70
2023/06/25 12:09:59;;;;;;;;;6.33;6.33;;;;;30.87;41.89;100523.12;146622;564;46016;-70
2023/06/25 12:12:56;;;;;;;;;8.00;7.67;;;;;30.76;42.73;100518.16;146622;582;46027;-71
2023/06/25 12:16:02;;;;;;;;;8.67;8.00;;;;;30.73;43.01;100521.81;146617;599;46031;-70
2023/06/25 12:19:11;;;;;;;;;7.00;7.00;;;;;30.69;43.74;100509.47;146623;574;46010;-70
2023/06/25 12:22:19;;;;;;;;;9.00;8.00;;;;;30.69;43.02;100490.72;146616;604;46017;-70
2023/06/25 12:25:13;;;;;;;;;7.67;7.00;;;;;30.73;41.73;100487.00;146620;604;46020;-70
2023/06/25 12:28:30;;;;;;;;;7.67;7.67;;;;;30.78;42.36;100479.72;146619;565;46916;-70
2023/06/25 12:31:26;;;;;;;;;8.00;7.00;;;;;30.90;41.77;100486.41;146624;661;46010;-70
2023/06/25 12:34:29;;;;;;;;;;;;;;;;;;;;;
2023/06/25 12:37:25;;;;;;;;;8.33;6.33;;;;;30.95;41.54;100468.38;146622;590;46020;-70
2023/06/25 12:40:56;;;;;;;;;9.67;8.33;;;;;29.21;42.03;100141.25;146619;575;46016;-71
2023/06/25 12:44:04;;;;;;;;;9.33;6.33;;;;;31.22;40.96;100452.22;146622;581;46021;-70
2023/06/25 12:47:11;;;;;;;;;8.67;8.00;;;;;31.36;40.45;100443.66;146621;602;46016;-72
2023/06/25 12:50:19;;;;;;;;;6.33;6.33;;;;;31.48;46.30;100427.97;146623;592;46010;-69
2023/06/25 12:53:16;;;;;;;;;9.67;8.00;;;;;31.47;46.39;100411.97;146621;690;47012;-70
2023/06/25 12:56:25;;;;;;;;;10.33;7.00;;;;;29.77;44.86;100125.00;146627;565;46010;-70
2023/06/25 12:59:24;;;;;;;;;8.00;8.00;;;;;31.40;45.86;100395.28;146617;614;47016;-70
2023/06/25 13:02:23;;;;;;;;;8.00;8.00;;;;;31.35;46.42;100388.34;146624;565;46020;-71
2023/06/25 13:05:26;;;;;;;;;5.00;5.00;;;;;31.30;44.39;100381.31;146620;604;47016;-71
2023/06/25 13:08:23;;;;;;;;;9.33;7.33;;;;;31.32;44.80;100375.03;146625;667;46010;-71
2023/06/25 13:11:22;;;;;;;;;9.33;6.00;;;;;31.38;43.90;100378.38;146620;649;46016;-70
2023/06/25 13:14:15;;;;;;;;;6.67;6.67;;;;;31.45;42.25;100382.53;146626;578;45021;-71
2023/06/25 13:17:24;;;;;;;;;9.33;7.00;;;;;31.55;41.29;100387.53;146619;565;46016;-70
2023/06/25 13:20:27;;;;;;;;;6.00;6.00;;;;;31.61;40.79;100389.97;146624;698;46021;-71
2023/06/25 13:23:19;;;;;;;;;6.00;5.67;;;;;31.67;39.67;100390.56;146621;591;46016;-71
2023/06/25 13:26:15;;;;;;;;;10.33;7.00;;;;;31.77;42.78;100392.87;146625;607;46010;-70
2023/06/25 13:29:11;;;;;;;;;4.67;4.00;;;;;31.83;43.99;100392.63;146623;631;47014;-70
2023/06/25 13:32:12;;;;;;;;;7.67;6.00;;;;;31.73;46.90;100400.19;146620;611;46020;-71
2023/06/25 13:35:13;;;;;;;;;6.00;6.00;;;;;31.44;43.98;100394.22;146624;576;46033;-69
2023/06/25 13:38:24;;;;;;;;;9.33;8.67;;;;;31.13;45.36;100388.31;146625;614;46010;-70
2023/06/25 13:41:45;;;;;;;;;7.00;7.00;;;;;28.44;43.32;99945.56;146622;600;46012;-69
2023/06/25 13:44:57;;;;;;;;;6.33;6.33;;;;;31.13;41.45;100394.53;146624;583;46010;-70
2023/06/25 13:47:58;;;;;;;;;6.00;6.00;;;;;31.18;40.09;100397.88;146621;597;46016;-69
2023/06/25 13:51:09;;;;;;;;;7.67;6.00;;;;;29.92;40.83;100166.31;146625;622;46010;-70
2023/06/25 13:54:26;;;;;;;;;6.00;5.00;;;;;29.63;42.36;100093.47;146622;566;46915;-70
2023/06/25 13:57:24;;;;;;;;;7.00;7.00;;;;;30.79;42.48;100279.84;146622;571;46021;-71
2023/06/25 14:00:29;;;;;;;;;7.00;7.00;;;;;31.70;43.09;100400.31;146620;575;46016;-70
2023/06/25 14:03:45;;;;;;;;;;;;;;;;;;;;;
2023/06/25 14:06:52;;;;;;;;;;;;;;;;;;;;;
2023/06/25 14:09:56;;;;;;;;;7.00;6.33;;;;;31.89;40.81;100373.63;146624;655;47010;-71
2023/06/25 14:12:58;;;;;;;;;5.67;5.67;;;;;31.90;40.77;100373.56;146623;643;46016;-70
2023/06/25 14:16:10;;;;;;;;;6.00;5.33;;;;;31.94;42.97;100379.69;146623;607;46012;-71
2023/06/25 14:19:09;;;;;;;;;7.00;6.33;;;;;31.86;44.74;100371.03;146619;602;47012;-70
2023/06/25 14:22:24;;;;;;;;;5.67;5.67;;;;;31.66;46.03;100380.81;146620;595;47012;-69
2023/06/25 14:25:23;;;;;;;;;7.00;7.00;;;;;31.55;47.19;100379.50;146620;583;46016;-71
2023/06/25 14:28:25;;;;;;;;;10.25;9.50;;;;;31.42;46.47;100379.13;146622;598;46021;-70
2023/06/25 14:31:24;;;;;;;;;6.33;6.00;;;;;31.34;49.00;100378.56;146621;606;46012;-71
2023/06/25 14:34:27;;;;;;;;;8.00;6.33;;;;;31.20;49.60;100390.66;146622;567;46020;-70
2023/06/25 14:37:23;;;;;;;;;7.00;7.00;;;;;31.03;51.08;100393.16;146623;570;46012;-70
2023/06/25 14:40:45;;;;;;;;;6.00;5.67;;;;;30.86;49.81;100396.44;146628;590;46010;-70
2023/06/25 14:43:49;;;;;;;;;5.67;5.67;;;;;30.71;52.08;100397.84;146623;628;46013;-69
2023/06/25 14:46:44;;;;;;;;;6.67;5.00;;;;;30.53;50.21;100425.28;146624;598;46010;-71
2023/06/25 14:49:48;;;;;;;;;7.00;5.67;;;;;30.31;50.41;100418.06;146618;581;46017;-70